Time;durP1;ratioP1;P1;durP2;ratioP2;P2;SDS_P1;SDS_P2;PMS_P1;PMS_P2;Temp;Humidity;BMP_temperature;BMP_pressure;BME280_temperature;BME280_humidity;BME280_pressure;Samples;Min_cycle;Max_cycle;Signal;HPM_P1;HPM_P2
2023/03/09 00:01:39;;;;;;;18.47;14.97;;;7.40;99.90;;;;;;4954112;28;20453;-84
2023/03/09 00:04:06;;;;;;;16.17;13.90;;;7.40;99.90;;;;;;4959980;28;20480;-84
2023/03/09 00:06:34;;;;;;;17.47;14.17;;;7.20;99.90;;;;;;4943123;28;20570;-85
2023/03/09 00:09:03;;;;;;;13.63;12.20;;;7.10;99.90;;;;;;4956316;28;20468;-83
2023/03/09 00:11:30;;;;;;;13.00;11.57;;;6.90;99.90;;;;;;4962217;28;20487;-83
2023/03/09 00:14:02;;;;;;;13.17;11.60;;;7.00;99.90;;;;;;4945962;28;21161;-85
2023/03/09 00:16:29;;;;;;;18.57;13.20;;;7.30;99.90;;;;;;4960278;28;20543;-82
2023/03/09 00:18:57;;;;;;;14.83;13.33;;;7.10;99.90;;;;;;4957759;28;20471;-85
2023/03/09 00:21:34;;;;;;;13.77;12.27;;;6.90;99.90;;;;;;4945200;28;20523;-84
2023/03/09 00:24:11;;;;;;;13.63;11.47;;;6.80;99.90;;;;;;4959664;28;20537;-86
2023/03/09 00:26:43;;;;;;;13.10;11.60;;;6.80;99.90;;;;;;4963789;28;20483;-83
2023/03/09 00:29:12;;;;;;;14.63;13.13;;;7.30;99.90;;;;;;4951172;28;20467;-84
2023/03/09 00:31:40;;;;;;;15.47;12.47;;;7.60;99.90;;;;;;4965021;28;20484;-83
2023/03/09 00:34:08;;;;;;;14.13;12.37;;;7.70;99.90;;;;;;4951862;28;20452;-86
2023/03/09 00:36:37;;;;;;;17.37;13.20;;;7.50;99.90;;;;;;4965531;28;20493;-84
2023/03/09 00:39:04;;;;;;;16.33;12.47;;;7.40;99.90;;;;;;4990910;28;20444;-82
2023/03/09 00:41:31;;;;;;;16.70;12.63;;;7.60;99.90;;;;;;4998649;28;20439;-85
2023/03/09 00:44:02;;;;;;;18.10;14.20;;;7.80;99.90;;;;;;4989342;28;20444;-83
2023/03/09 00:46:33;;;;;;;18.73;14.10;;;7.80;99.90;;;;;;4977087;28;20464;-84
2023/03/09 00:49:03;;;;;;;16.87;14.07;;;7.70;99.90;;;;;;4966800;28;20590;-84
2023/03/09 00:51:31;;;;;;;20.20;15.10;;;7.70;99.90;;;;;;4953674;28;20441;-83
2023/03/09 00:54:03;;;;;;;17.47;13.33;;;7.70;99.90;;;;;;4971693;28;20452;-83
2023/03/09 00:56:30;;;;;;;18.60;14.30;;;7.70;99.90;;;;;;4953558;28;20466;-83
2023/03/09 00:58:58;;;;;;;16.27;13.53;;;7.60;99.90;;;;;;4964356;28;20464;-83
2023/03/09 01:01:25;;;;;;;15.57;13.00;;;7.70;99.90;;;;;;4970590;28;20570;-84
2023/03/09 01:03:53;;;;;;;17.97;14.27;;;7.70;99.90;;;;;;4978286;28;20464;-83
2023/03/09 01:06:22;;;;;;;18.00;12.97;;;7.60;99.90;;;;;;4966976;28;20451;-83
2023/03/09 01:08:52;;;;;;;19.30;13.77;;;7.80;99.90;;;;;;4951670;28;22251;-85
2023/03/09 01:11:19;;;;;;;19.17;13.77;;;7.50;99.90;;;;;;4975408;28;20507;-84
2023/03/09 01:13:46;;;;;;;13.23;11.90;;;7.40;99.90;;;;;;4974841;28;20555;-84
2023/03/09 01:16:18;;;;;;;14.97;12.17;;;7.30;99.90;;;;;;4948206;28;20451;-85
2023/03/09 01:18:45;;;;;;;16.53;14.83;;;7.20;99.90;;;;;;4961482;28;20980;-85
2023/03/09 01:21:12;;;;;;;12.33;11.03;;;7.20;99.90;;;;;;4964765;28;21006;-83
2023/03/09 01:23:40;;;;;;;12.80;11.50;;;7.20;99.90;;;;;;4955395;28;20436;-83
2023/03/09 01:26:07;;;;;;;12.80;11.50;;;7.30;99.90;;;;;;4964926;28;22138;-84
2023/03/09 01:28:34;;;;;;;14.13;12.23;;;7.60;99.90;;;;;;4975896;28;20500;-84
2023/03/09 01:31:10;;;;;;;12.10;10.90;;;7.70;99.90;;;;;;4964149;28;20550;-84
2023/03/09 01:33:39;;;;;;;13.20;11.80;;;7.50;99.90;;;;;;4964885;28;20863;-85
2023/03/09 01:36:12;;;;;;;11.77;10.53;;;7.40;99.90;;;;;;4946755;28;20460;-85
2023/03/09 01:38:40;;;;;;;13.00;11.70;;;7.50;99.90;;;;;;4963834;28;20559;-85
2023/03/09 01:41:07;;;;;;;16.50;12.30;;;7.80;99.90;;;;;;4963401;28;20465;-85
2023/03/09 01:43:41;;;;;;;12.40;11.10;;;8.10;99.90;;;;;;4962412;28;20515;-83
2023/03/09 01:46:20;;;;;;;14.43;12.10;;;8.00;99.90;;;;;;4964686;28;20456;-85
2023/03/09 01:49:14;;;;;;;14.67;12.60;;;7.70;99.90;;;;;;4946907;28;20503;-85
2023/03/09 01:51:49;;;;;;;12.50;11.30;;;7.50;99.90;;;;;;4959183;28;20459;-85
2023/03/09 01:54:23;;;;;;;12.93;10.90;;;7.40;99.90;;;;;;4959502;28;20471;-83
2023/03/09 01:56:54;;;;;;;18.00;12.60;;;7.30;99.90;;;;;;4941505;28;20476;-86
2023/03/09 01:59:25;;;;;;;13.97;12.43;;;7.30;99.90;;;;;;4960347;28;21192;-84
2023/03/09 02:01:52;;;;;;;13.33;11.80;;;7.30;99.90;;;;;;4944141;28;20597;-84
2023/03/09 02:04:29;;;;;;;15.73;13.30;;;7.30;99.90;;;;;;4941347;28;20460;-83
2023/03/09 02:06:56;;;;;;;15.10;13.50;;;7.30;99.90;;;;;;4957119;28;20472;-84
2023/03/09 02:09:33;;;;;;;14.60;12.10;;;7.20;99.90;;;;;;4957288;28;20971;-85
2023/03/09 02:12:02;;;;;;;16.60;12.73;;;7.30;99.90;;;;;;4944827;28;20471;-85
2023/03/09 02:14:29;;;;;;;12.63;11.40;;;7.30;99.90;;;;;;4957908;28;20498;-84
2023/03/09 02:16:56;;;;;;;13.43;11.27;;;7.20;99.90;;;;;;4956119;28;20512;-86
2023/03/09 02:19:33;;;;;;;13.90;11.70;;;7.30;99.90;;;;;;4963775;28;20470;-85
2023/03/09 02:22:00;;;;;;;13.83;12.23;;;7.40;99.90;;;;;;4965883;28;20467;-83
2023/03/09 02:24:41;;;;;;;13.43;12.03;;;7.40;99.90;;;;;;4944231;28;20569;-83
2023/03/09 02:27:24;;;;;;;14.43;12.80;;;7.60;99.90;;;;;;4957031;28;20496;-84
2023/03/09 02:29:51;;;;;;;16.07;12.80;;;7.50;99.90;;;;;;4961731;28;20471;-84
2023/03/09 02:32:18;;;;;;;16.03;12.43;;;7.60;99.90;;;;;;4955111;28;20487;-84
2023/03/09 02:34:45;;;;;;;15.30;12.87;;;7.60;99.90;;;;;;4944356;28;20467;-85
2023/03/09 02:37:35;;;;;;;16.73;12.37;;;7.60;99.90;;;;;;4962200;28;20476;-82
2023/03/09 02:40:15;;;;;;;17.10;11.70;;;7.40;99.90;;;;;;4958821;28;20516;-82
2023/03/09 02:42:45;;;;;;;12.23;10.93;;;7.30;99.90;;;;;;4944788;28;20464;-84
2023/03/09 02:45:15;;;;;;;13.47;11.20;;;7.20;99.90;;;;;;4951165;28;20507;-82
2023/03/09 02:47:42;;;;;;;11.20;9.80;;;7.10;99.90;;;;;;4976990;28;20472;-83
2023/03/09 02:50:10;;;;;;;11.20;10.00;;;7.10;99.90;;;;;;4979593;28;20959;-82
2023/03/09 02:52:37;;;;;;;14.07;11.43;;;7.10;99.90;;;;;;4965755;28;20487;-82
2023/03/09 02:55:05;;;;;;;13.43;11.43;;;7.00;99.90;;;;;;4960952;28;20456;-84
2023/03/09 02:57:32;;;;;;;13.37;10.23;;;7.00;99.90;;;;;;4953162;28;20858;-84
2023/03/09 02:59:59;;;;;;;14.47;12.20;;;6.90;99.90;;;;;;4950245;28;20460;-82
2023/03/09 03:02:26;;;;;;;13.70;11.23;;;6.80;99.90;;;;;;4965336;28;20484;-83
2023/03/09 03:04:56;;;;;;;16.30;12.93;;;6.80;99.90;;;;;;4969945;28;20515;-82
2023/03/09 03:07:26;;;;;;;18.40;12.70;;;6.80;99.90;;;;;;4980108;28;20482;-83
2023/03/09 03:10:03;;;;;;;17.50;13.43;;;6.80;99.90;;;;;;4978738;28;20527;-83
2023/03/09 03:12:30;;;;;;;17.73;12.97;;;6.70;99.90;;;;;;4982122;28;20477;-82
2023/03/09 03:15:04;;;;;;;19.00;13.97;;;6.70;99.90;;;;;;4982070;28;20451;-82
2023/03/09 03:17:30;;;;;;;16.10;13.83;;;6.60;99.90;;;;;;4980586;28;20478;-82
2023/03/09 03:19:57;;;;;;;17.70;13.43;;;6.70;99.90;;;;;;4979344;28;20460;-83
2023/03/09 03:22:24;;;;;;;18.60;13.80;;;6.60;99.90;;;;;;4981366;28;20440;-81
2023/03/09 03:24:53;;;;;;;18.77;14.57;;;6.60;99.90;;;;;;4981128;28;20440;-83
2023/03/09 03:27:20;;;;;;;19.33;15.33;;;6.50;99.90;;;;;;4974837;28;20476;-83
2023/03/09 03:29:55;;;;;;;20.30;14.33;;;6.50;99.90;;;;;;4947553;28;21318;-82
2023/03/09 03:32:22;;;;;;;22.17;14.63;;;6.40;99.90;;;;;;4962215;28;20571;-83
2023/03/09 03:34:52;;;;;;;18.63;13.80;;;6.40;99.90;;;;;;4963855;28;20552;-83
2023/03/09 03:37:19;;;;;;;24.33;15.97;;;6.40;99.90;;;;;;4962331;28;21242;-86
2023/03/09 03:39:46;;;;;;;22.40;15.40;;;6.30;99.90;;;;;;4954147;28;21707;-83
2023/03/09 03:42:13;;;;;;;23.20;16.00;;;6.30;99.90;;;;;;4960277;28;20448;-83
2023/03/09 03:44:43;;;;;;;25.17;15.77;;;6.30;99.90;;;;;;4938423;28;20978;-83
2023/03/09 03:47:10;;;;;;;23.80;15.07;;;6.20;99.90;;;;;;4938871;28;20480;-84
2023/03/09 03:49:40;;;;;;;27.10;16.47;;;6.20;99.90;;;;;;4939327;28;20535;-83
2023/03/09 03:52:10;;;;;;;25.67;16.60;;;6.20;99.90;;;;;;4948029;28;20539;-83
2023/03/09 03:54:40;;;;;;;22.47;15.40;;;6.20;99.90;;;;;;4941713;28;20474;-84
2023/03/09 03:57:09;;;;;;;26.43;17.40;;;6.20;99.90;;;;;;4942041;28;20472;-82
2023/03/09 03:59:39;;;;;;;25.23;15.60;;;6.20;99.90;;;;;;4940924;28;20741;-84
2023/03/09 04:02:08;;;;;;;24.40;15.70;;;6.30;99.90;;;;;;4962399;28;20845;-83
2023/03/09 04:04:35;;;;;;;26.10;16.73;;;6.20;99.90;;;;;;4960645;28;20506;-82
2023/03/09 04:07:01;;;;;;;28.30;16.70;;;6.20;99.90;;;;;;4942517;28;20480;-84
2023/03/09 04:09:30;;;;;;;25.30;14.77;;;6.10;99.90;;;;;;4946505;28;20691;-83
2023/03/09 04:11:57;;;;;;;29.77;17.10;;;6.10;99.90;;;;;;4961340;28;20534;-84
2023/03/09 04:14:23;;;;;;;29.33;15.70;;;6.10;99.90;;;;;;4956744;28;20487;-85
2023/03/09 04:16:51;;;;;;;27.63;17.43;;;6.10;99.90;;;;;;4945949;28;20949;-83
2023/03/09 04:19:17;;;;;;;31.30;17.13;;;6.10;99.90;;;;;;4946199;28;20456;-84
2023/03/09 04:21:47;;;;;;;27.23;15.93;;;6.10;99.90;;;;;;4943603;28;20464;-82
2023/03/09 04:24:16;;;;;;;27.53;16.53;;;6.10;99.90;;;;;;4946467;28;21148;-84
2023/03/09 04:26:43;;;;;;;27.87;17.00;;;6.10;99.90;;;;;;4959185;28;20514;-82
2023/03/09 04:29:15;;;;;;;33.20;18.43;;;6.10;99.90;;;;;;4944395;28;20475;-84
2023/03/09 04:31:42;;;;;;;27.60;17.30;;;6.00;99.90;;;;;;4964791;28;20474;-84
2023/03/09 04:34:12;;;;;;;31.20;17.53;;;6.00;99.90;;;;;;4962180;28;20492;-83
2023/03/09 04:36:39;;;;;;;27.73;17.93;;;6.00;99.90;;;;;;4959173;28;20524;-82
2023/03/09 04:39:05;;;;;;;30.80;18.30;;;6.00;99.90;;;;;;4971404;28;20579;-83
2023/03/09 04:41:33;;;;;;;27.10;15.60;;;6.00;99.90;;;;;;4977500;28;20448;-82
2023/03/09 04:43:59;;;;;;;27.97;16.17;;;6.10;99.90;;;;;;4952476;28;20474;-82
2023/03/09 04:46:26;;;;;;;25.13;15.47;;;6.20;99.90;;;;;;4948204;28;20464;-84
2023/03/09 04:48:53;;;;;;;24.27;15.40;;;6.20;99.90;;;;;;4966578;28;20507;-85
2023/03/09 04:51:21;;;;;;;26.60;15.50;;;6.20;99.90;;;;;;4966943;28;20877;-84
2023/03/09 04:53:48;;;;;;;25.27;15.40;;;6.10;99.90;;;;;;4966908;28;20483;-84
2023/03/09 04:56:16;;;;;;;23.63;15.53;;;6.10;99.90;;;;;;4948769;28;20578;-83
2023/03/09 04:58:43;;;;;;;23.03;14.23;;;6.10;99.90;;;;;;4965410;28;20503;-84
2023/03/09 05:01:10;;;;;;;24.20;13.97;;;6.30;99.90;;;;;;4969093;28;21277;-84
2023/03/09 05:03:36;;;;;;;21.97;13.73;;;6.40;99.90;;;;;;4968760;28;20463;-84
2023/03/09 05:06:05;;;;;;;20.37;13.70;;;6.50;99.90;;;;;;4977876;28;20472;-84
2023/03/09 05:08:32;;;;;;;20.20;13.87;;;6.40;99.90;;;;;;4958699;28;20484;-84
2023/03/09 05:10:59;;;;;;;20.37;14.47;;;6.30;99.90;;;;;;4982185;28;20464;-83
2023/03/09 05:13:25;;;;;;;25.63;15.07;;;6.30;99.90;;;;;;4965585;28;20506;-83
2023/03/09 05:15:52;;;;;;;24.47;13.40;;;6.30;99.90;;;;;;4933098;28;20455;-81
2023/03/09 05:18:19;;;;;;;22.37;13.17;;;6.20;99.90;;;;;;4948689;28;20468;-82
2023/03/09 05:20:46;;;;;;;21.37;13.90;;;6.30;99.90;;;;;;4949103;28;20466;-83
2023/03/09 05:23:13;;;;;;;24.70;15.20;;;6.70;99.90;;;;;;4966069;28;20857;-82
2023/03/09 05:25:40;;;;;;;23.73;14.77;;;6.80;99.90;;;;;;4987730;28;20808;-83
2023/03/09 05:28:07;;;;;;;24.43;14.07;;;6.90;99.90;;;;;;4964978;28;20539;-83
2023/03/09 05:30:33;;;;;;;24.40;14.67;;;7.10;99.90;;;;;;4952475;28;20460;-83
2023/03/09 05:33:03;;;;;;;21.37;12.83;;;6.90;99.90;;;;;;4945330;28;20480;-84
2023/03/09 05:37:59;;;;;;;23.00;14.33;;;7.00;99.90;;;;;;4923512;29;20830;-86
2023/03/09 05:40:25;;;;;;;19.67;11.33;;;7.00;99.90;;;;;;4911311;29;20461;-83
2023/03/09 05:42:52;;;;;;;23.13;14.67;;;6.90;99.90;;;;;;4910010;29;20462;-84
2023/03/09 05:45:19;;;;;;;21.63;12.13;;;7.10;99.90;;;;;;4909556;29;20465;-84
2023/03/09 05:47:46;;;;;;;21.43;12.93;;;6.90;99.90;;;;;;4933531;29;20480;-84
2023/03/09 05:50:13;;;;;;;22.60;12.97;;;6.70;99.90;;;;;;4915169;29;20462;-83
2023/03/09 05:52:40;;;;;;;19.53;11.73;;;6.50;99.90;;;;;;4931344;29;20906;-82
2023/03/09 05:55:07;;;;;;;16.90;10.43;;;6.40;99.90;;;;;;4930698;29;20503;-84
2023/03/09 05:57:34;;;;;;;19.80;13.10;;;6.40;99.90;;;;;;4934804;29;20485;-86
2023/03/09 06:00:01;;;;;;;15.23;10.80;;;6.50;99.90;;;;;;4930682;29;20461;-82
2023/03/09 06:02:27;;;;;;;16.83;11.60;;;6.40;99.90;;;;;;4925605;29;20528;-84
2023/03/09 06:04:54;;;;;;;20.20;12.57;;;6.50;99.90;;;;;;4931116;29;20454;-82
2023/03/09 06:07:21;;;;;;;20.30;12.70;;;6.90;99.90;;;;;;4913686;29;20469;-84
2023/03/09 06:09:48;;;;;;;20.23;12.37;;;7.10;99.90;;;;;;4930230;29;20469;-82
2023/03/09 06:12:18;;;;;;;18.80;12.67;;;6.90;99.90;;;;;;4931832;29;20531;-82
2023/03/09 06:14:50;;;;;;;24.03;13.70;;;6.70;99.90;;;;;;4932298;29;20851;-85
2023/03/09 06:17:23;;;;;;;22.20;13.57;;;6.90;99.90;;;;;;4918572;29;20465;-84
2023/03/09 06:19:55;;;;;;;21.87;13.37;;;7.10;99.90;;;;;;4924714;29;20552;-80
2023/03/09 06:22:31;;;;;;;23.90;15.03;;;6.80;99.90;;;;;;4911815;29;20525;-84
2023/03/09 06:24:58;;;;;;;23.53;14.20;;;7.00;99.90;;;;;;4931320;29;20467;-81
2023/03/09 06:27:35;;;;;;;20.60;14.27;;;7.10;99.90;;;;;;4911901;29;20489;-82
2023/03/09 06:30:05;;;;;;;19.33;12.80;;;7.00;99.90;;;;;;4910791;29;20461;-82
2023/03/09 06:32:33;;;;;;;21.37;13.77;;;7.00;99.90;;;;;;4933677;29;20517;-85
2023/03/09 06:35:05;;;;;;;19.50;11.70;;;6.90;99.90;;;;;;4924374;29;20482;-85
2023/03/09 06:37:36;;;;;;;17.20;10.87;;;6.60;99.90;;;;;;4924366;29;20608;-84
2023/03/09 06:40:04;;;;;;;16.00;10.83;;;6.50;99.90;;;;;;4909749;29;20592;-83
2023/03/09 06:42:31;;;;;;;13.43;8.70;;;6.50;99.90;;;;;;4923264;29;20481;-86
2023/03/09 06:44:59;;;;;;;14.87;9.57;;;6.90;99.90;;;;;;4906804;29;20472;-85
2023/03/09 06:47:28;;;;;;;13.17;8.87;;;7.00;99.90;;;;;;4927422;28;20530;-85
2023/03/09 06:49:55;;;;;;;11.80;8.53;;;6.90;99.90;;;;;;4925683;29;20469;-84
2023/03/09 06:52:25;;;;;;;13.77;9.20;;;7.00;99.90;;;;;;4909177;29;21092;-86
2023/03/09 06:54:52;;;;;;;16.47;11.13;;;6.80;99.90;;;;;;4925206;29;20530;-85
2023/03/09 06:57:33;;;;;;;16.13;10.30;;;6.70;99.90;;;;;;4926938;29;20497;-86
2023/03/09 07:00:04;;;;;;;13.33;9.50;;;6.60;99.90;;;;;;4927751;29;20446;-86
2023/03/09 07:05:09;;;;;;;14.80;10.20;;;6.80;99.90;;;;;;5485068;23;20478;-84
2023/03/09 07:07:42;;;;;;;15.60;11.00;;;6.90;99.90;;;;;;4920865;29;20520;-83
2023/03/09 07:10:23;;;;;;;14.73;10.07;;;7.10;99.90;;;;;;4935638;28;20532;-84
2023/03/09 07:12:52;;;;;;;14.10;9.83;;;7.20;99.90;;;;;;4946643;29;20481;-84
2023/03/09 07:15:19;;;;;;;14.00;9.90;;;6.90;99.90;;;;;;4928441;29;20552;-84
2023/03/09 07:17:46;;;;;;;12.03;8.47;;;6.70;99.90;;;;;;4944932;28;20469;-85
2023/03/09 07:20:13;;;;;;;12.37;8.33;;;6.70;99.90;;;;;;4945013;28;20461;-85
2023/03/09 07:22:40;;;;;;;11.30;8.23;;;6.60;99.90;;;;;;4973898;23;20492;-84
2023/03/09 07:25:11;;;;;;;11.10;9.07;;;6.60;99.90;;;;;;4942628;28;20554;-85
2023/03/09 07:27:40;;;;;;;12.70;8.50;;;6.60;99.90;;;;;;4935881;28;20482;-85
2023/03/09 07:30:11;;;;;;;11.83;8.50;;;6.80;99.90;;;;;;4945498;28;20449;-82
2023/03/09 07:32:38;;;;;;;9.30;8.00;;;7.10;99.90;;;;;;4957226;28;20481;-84
2023/03/09 07:35:06;;;;;;;10.90;7.53;;;7.00;99.90;;;;;;4947414;28;20489;-85
2023/03/09 07:37:33;;;;;;;11.40;7.80;;;6.80;99.90;;;;;;4955904;28;20521;-85
2023/03/09 07:40:05;;;;;;;11.37;7.67;;;7.10;99.90;;;;;;4952911;28;20463;-85
2023/03/09 07:42:42;;;;;;;14.20;9.27;;;7.50;99.90;;;;;;4963932;28;20520;-83
2023/03/09 07:45:12;;;;;;;11.93;8.50;;;7.60;99.90;;;;;;4968079;28;20444;-85
2023/03/09 07:47:42;;;;;;;13.27;9.70;;;7.60;99.90;;;;;;4932742;28;20519;-83
2023/03/09 07:50:28;;;;;;;15.80;9.70;;;7.70;99.90;;;;;;4948313;28;20478;-84
2023/03/09 07:52:59;;;;;;;12.83;9.50;;;7.50;99.90;;;;;;4934775;28;20530;-83
2023/03/09 07:55:29;;;;;;;11.23;8.47;;;7.10;99.90;;;;;;4929839;28;20456;-85
2023/03/09 07:57:56;;;;;;;13.23;9.47;;;7.20;99.90;;;;;;4927369;28;20496;-84
2023/03/09 08:00:24;;;;;;;7.00;6.27;;;7.10;99.90;;;;;;4922438;28;20461;-85
2023/03/09 08:02:51;;;;;;;8.70;6.53;;;7.00;99.90;;;;;;4933069;28;20515;-85
2023/03/09 08:05:19;;;;;;;9.10;7.50;;;6.90;99.90;;;;;;4940727;28;20504;-85
2023/03/09 08:07:47;;;;;;;10.03;7.07;;;6.80;99.90;;;;;;4942894;28;20484;-86
2023/03/09 08:10:17;;;;;;;10.43;6.80;;;6.80;99.90;;;;;;4927696;28;20468;-83
2023/03/09 08:12:50;;;;;;;6.93;5.70;;;6.80;99.90;;;;;;4936721;28;20464;-81
2023/03/09 08:15:22;;;;;;;8.50;6.97;;;6.80;99.90;;;;;;4937797;28;21499;-87
2023/03/09 08:17:52;;;;;;;9.27;7.50;;;7.40;99.90;;;;;;4927214;28;20475;-86
2023/03/09 08:20:20;;;;;;;9.30;7.27;;;7.30;99.90;;;;;;4937101;28;20466;-85
2023/03/09 08:22:53;;;;;;;10.33;8.10;;;7.60;99.90;;;;;;4926757;28;20952;-86
2023/03/09 08:25:21;;;;;;;11.57;8.23;;;7.40;99.90;;;;;;4926955;28;20467;-86
2023/03/09 08:27:48;;;;;;;12.33;9.50;;;7.20;99.90;;;;;;4926495;28;20491;-85
2023/03/09 08:30:22;;;;;;;13.30;9.40;;;7.50;99.90;;;;;;4944959;28;20475;-86
2023/03/09 08:32:58;;;;;;;12.77;8.27;;;7.70;99.90;;;;;;4953544;28;20467;-84
2023/03/09 08:35:30;;;;;;;11.90;8.60;;;7.80;99.90;;;;;;4933980;28;20498;-84
2023/03/09 08:38:01;;;;;;;11.67;8.70;;;7.80;99.90;;;;;;4953041;28;21010;-86
2023/03/09 08:40:33;;;;;;;11.67;9.30;;;7.80;99.90;;;;;;4963756;28;20448;-83
2023/03/09 08:43:01;;;;;;;13.00;8.30;;;7.60;99.90;;;;;;4928474;28;20485;-83
2023/03/09 08:45:31;;;;;;;10.40;7.50;;;7.60;99.90;;;;;;4945241;28;20447;-84
2023/03/09 08:47:58;;;;;;;12.17;7.80;;;7.60;99.90;;;;;;4946025;28;20502;-86
2023/03/09 08:50:35;;;;;;;9.93;7.37;;;7.50;99.90;;;;;;4928871;28;20449;-83
2023/03/09 08:53:05;;;;;;;10.13;7.73;;;7.10;99.90;;;;;;4938479;28;20502;-85
2023/03/09 08:55:34;;;;;;;9.73;7.73;;;7.10;99.90;;;;;;4932622;28;20524;-85
2023/03/09 09:00:40;;;;;;;8.37;6.70;;;7.00;99.90;;;;;;4929281;28;21546;-84
2023/03/09 09:03:28;;;;;;;9.60;7.43;;;7.40;99.90;;;;;;4933350;29;20531;-83
2023/03/09 09:06:04;;;;;;;9.47;7.37;;;7.60;99.90;;;;;;4923716;29;20450;-84
2023/03/09 09:08:36;;;;;;;9.63;6.70;;;7.60;99.90;;;;;;4940211;28;20490;-83
2023/03/09 09:11:12;;;;;;;12.17;7.20;;;7.60;99.90;;;;;;4926126;28;20449;-85
2023/03/09 09:13:43;;;;;;;10.90;7.40;;;7.60;99.90;;;;;;4943473;29;20544;-86
2023/03/09 09:16:15;;;;;;;9.07;6.70;;;7.70;99.90;;;;;;4917073;29;20456;-84
2023/03/09 09:18:42;;;;;;;8.67;6.53;;;7.70;99.90;;;;;;4919076;29;21284;-85
2023/03/09 09:21:15;;;;;;;8.00;6.20;;;7.50;99.90;;;;;;4923970;29;20468;-85
2023/03/09 09:23:44;;;;;;;8.43;6.30;;;7.40;99.90;;;;;;4927530;29;20561;-85
2023/03/09 09:26:14;;;;;;;7.83;5.67;;;7.20;99.90;;;;;;4926058;28;21005;-85
2023/03/09 09:28:44;;;;;;;6.10;5.50;;;7.10;99.90;;;;;;4902076;29;20507;-85
2023/03/09 09:31:23;;;;;;;8.00;5.63;;;7.10;99.90;;;;;;4904318;29;20453;-85
2023/03/09 09:33:56;;;;;;;7.53;5.80;;;7.10;99.90;;;;;;4890691;29;20474;-86
2023/03/09 09:36:24;;;;;;;8.27;5.93;;;7.50;99.90;;;;;;4915482;28;20561;-86
2023/03/09 09:38:53;;;;;;;6.33;5.37;;;7.90;99.90;;;;;;4909629;29;20541;-86
2023/03/09 09:41:44;;;;;;;7.83;6.30;;;7.70;99.90;;;;;;4924538;29;20461;-86
2023/03/09 09:44:24;;;;;;;7.33;5.87;;;7.60;99.90;;;;;;4926440;29;20556;-84
2023/03/09 09:46:56;;;;;;;7.07;6.10;;;7.40;99.90;;;;;;4910263;29;20482;-83
2023/03/09 09:49:29;;;;;;;6.60;5.93;;;7.50;99.90;;;;;;4932191;29;20472;-85
2023/03/09 09:52:14;;;;;;;7.30;6.00;;;7.80;99.90;;;;;;4916431;29;20457;-84
2023/03/09 09:55:28;;;;;;;5.93;5.27;;;8.30;99.90;;;;;;4929473;29;20958;-83
2023/03/09 09:58:33;;;;;;;7.40;5.90;;;8.40;99.90;;;;;;4915739;29;20569;-84
2023/03/09 10:01:33;;;;;;;6.80;6.10;;;8.20;99.90;;;;;;4917990;29;20549;-84
2023/03/09 10:04:14;;;;;;;6.97;5.50;;;7.90;99.90;;;;;;4941517;29;20461;-84
2023/03/09 10:07:06;;;;;;;6.90;5.97;;;7.80;99.90;;;;;;4923705;29;20556;-85
2023/03/09 10:09:45;;;;;;;6.60;5.93;;;7.70;99.90;;;;;;4927703;28;20516;-83
2023/03/09 10:12:30;;;;;;;6.30;5.50;;;7.60;99.90;;;;;;4923745;29;20521;-84
2023/03/09 10:15:13;;;;;;;5.27;4.77;;;7.60;99.90;;;;;;4906157;29;20536;-84
2023/03/09 10:18:08;;;;;;;5.40;4.90;;;7.70;99.90;;;;;;4911778;29;20477;-85
2023/03/09 10:20:41;;;;;;;7.13;5.47;;;7.70;99.90;;;;;;4925002;29;20466;-86
2023/03/09 10:23:26;;;;;;;5.33;4.83;;;7.70;99.90;;;;;;4926634;29;20540;-85
2023/03/09 10:26:14;;;;;;;5.83;5.07;;;7.70;99.90;;;;;;4920913;29;20457;-84
2023/03/09 10:28:52;;;;;;;6.40;4.90;;;7.70;99.90;;;;;;4920386;29;20500;-83
2023/03/09 10:35:07;;;;;;;5.43;4.87;;;7.80;99.90;;;;;;4927225;29;20474;-83
2023/03/09 10:37:40;;;;;;;8.93;5.37;;;7.80;99.90;;;;;;4913293;29;21067;-86
2023/03/09 10:40:25;;;;;;;5.50;4.87;;;8.10;99.90;;;;;;4904347;29;20445;-82
2023/03/09 10:42:52;;;;;;;7.50;6.70;;;8.10;99.90;;;;;;4929206;29;20925;-83
2023/03/09 10:45:27;;;;;;;5.33;4.80;;;8.40;99.90;;;;;;4931749;29;20501;-83
2023/03/09 10:48:22;;;;;;;4.90;4.40;;;8.40;99.90;;;;;;4947528;29;20465;-84
2023/03/09 10:51:09;;;;;;;5.30;4.80;;;8.50;99.90;;;;;;4933781;29;20429;-85
2023/03/09 10:53:55;;;;;;;5.27;4.60;;;8.60;99.90;;;;;;4929437;29;20462;-85
2023/03/09 11:00:13;;;;;;;6.40;5.73;;;8.50;99.90;;;;;;4926523;28;20446;-83
2023/03/09 11:02:53;;;;;;;5.17;4.67;;;8.50;99.90;;;;;;4921792;29;20526;-85
2023/03/09 11:05:31;;;;;;;5.73;5.20;;;8.60;99.90;;;;;;4920251;29;20486;-85
2023/03/09 11:08:07;;;;;;;5.83;5.30;;;8.60;99.90;;;;;;4906424;29;20476;-85
2023/03/09 11:10:40;;;;;;;5.77;5.10;;;8.60;99.90;;;;;;4905178;29;20552;-86
2023/03/09 11:13:28;;;;;;;5.33;4.27;;;8.60;99.90;;;;;;4915891;29;20458;-85
2023/03/09 11:16:37;;;;;;;6.10;5.40;;;8.60;99.90;;;;;;4904452;29;20544;-86
2023/03/09 11:19:14;;;;;;;4.83;4.43;;;8.80;99.90;;;;;;4930953;29;20576;-84
2023/03/09 11:22:01;;;;;;;5.13;4.73;;;8.70;99.90;;;;;;4908429;29;20493;-84
2023/03/09 11:24:47;;;;;;;5.70;5.10;;;9.00;99.90;;;;;;4924129;28;20615;-84
2023/03/09 11:27:32;;;;;;;4.60;4.20;;;8.80;99.90;;;;;;4915488;29;20494;-85
2023/03/09 11:30:20;;;;;;;5.60;5.10;;;8.80;99.90;;;;;;4908448;29;20462;-84
2023/03/09 11:32:54;;;;;;;5.30;4.70;;;8.90;99.90;;;;;;4911150;29;20465;-86
2023/03/09 11:35:29;;;;;;;5.77;5.17;;;9.00;99.90;;;;;;4899921;29;20589;-86
2023/03/09 11:38:34;;;;;;;4.87;4.47;;;9.00;99.90;;;;;;4925572;29;20489;-85
2023/03/09 11:41:18;;;;;;;6.53;4.83;;;8.90;99.90;;;;;;4922081;29;20458;-85
2023/03/09 11:44:02;;;;;;;6.67;5.20;;;8.90;99.90;;;;;;4926964;29;20981;-85
2023/03/09 11:46:29;;;;;;;6.00;5.33;;;8.90;99.90;;;;;;4902739;29;20505;-86
2023/03/09 11:49:20;;;;;;;5.27;4.77;;;8.90;99.90;;;;;;4922008;29;20477;-85
2023/03/09 11:52:17;;;;;;;6.47;5.20;;;9.00;99.90;;;;;;4900360;29;20465;-86
2023/03/09 11:55:12;;;;;;;5.83;5.23;;;9.10;99.90;;;;;;4922847;28;20485;-85
2023/03/09 11:58:38;;;;;;;9.47;5.93;;;9.30;99.90;;;;;;4871248;29;20482;-85
2023/03/09 12:01:29;;;;;;;6.10;5.60;;;9.50;99.90;;;;;;4880107;29;20531;-84
2023/03/09 12:04:16;;;;;;;6.50;5.70;;;9.50;99.90;;;;;;4866834;29;20495;-84
2023/03/09 12:07:20;;;;;;;6.93;6.20;;;9.50;99.90;;;;;;4870061;29;20463;-85
2023/03/09 12:10:25;;;;;;;6.17;5.57;;;9.50;99.90;;;;;;4860276;29;20485;-84
2023/03/09 12:13:35;;;;;;;7.50;6.30;;;9.50;99.90;;;;;;4866439;29;20979;-86
2023/03/09 12:16:26;;;;;;;9.17;6.57;;;9.40;99.90;;;;;;4852500;29;20492;-84
2023/03/09 12:19:24;;;;;;;7.03;6.30;;;9.30;99.90;;;;;;4883218;29;20863;-85
2023/03/09 12:22:13;;;;;;;8.43;6.63;;;9.30;99.90;;;;;;4886800;29;20456;-85
2023/03/09 12:25:18;;;;;;;8.63;7.77;;;9.40;99.90;;;;;;4887698;29;20483;-86
2023/03/09 12:28:06;;;;;;;7.10;6.27;;;9.60;99.90;;;;;;4909121;29;20468;-84
2023/03/09 12:31:11;;;;;;;8.50;7.50;;;9.60;99.90;;;;;;4956661;28;20464;-84
2023/03/09 12:33:42;;;;;;;7.23;6.43;;;10.10;99.90;;;;;;4941906;28;20682;-86
2023/03/09 12:36:30;;;;;;;9.50;8.10;;;10.00;99.90;;;;;;4919604;29;20497;-83
2023/03/09 12:39:21;;;;;;;8.50;7.70;;;10.10;99.90;;;;;;4911412;29;20462;-84
2023/03/09 12:42:14;;;;;;;8.73;7.63;;;10.30;99.90;;;;;;4907171;29;20468;-84
2023/03/09 12:45:33;;;;;;;8.40;7.60;;;10.40;99.90;;;;;;4920996;29;20544;-85
2023/03/09 12:48:28;;;;;;;10.37;8.57;;;10.20;99.90;;;;;;4918954;29;20494;-85
2023/03/09 12:51:33;;;;;;;10.10;8.20;;;10.10;99.90;;;;;;4952387;28;20460;-85
2023/03/09 12:54:23;;;;;;;10.23;8.40;;;10.10;99.90;;;;;;4948882;28;20449;-83
2023/03/09 12:57:21;;;;;;;10.57;8.30;;;9.80;99.90;;;;;;4927804;29;20505;-85
2023/03/09 13:00:48;;;;;;;12.63;8.30;;;9.80;99.90;;;;;;4930278;28;20468;-86
2023/03/09 13:03:46;;;;;;;8.67;7.77;;;9.80;99.90;;;;;;4930655;29;20464;-84
2023/03/09 13:06:52;;;;;;;10.00;8.70;;;9.90;99.90;;;;;;4946713;28;20452;-83
2023/03/09 13:09:40;;;;;;;9.03;7.87;;;9.80;99.90;;;;;;4948192;28;20477;-83
2023/03/09 13:12:38;;;;;;;9.33;8.17;;;9.70;99.90;;;;;;4927699;29;20461;-83
2023/03/09 13:15:26;;;;;;;10.10;9.03;;;10.00;99.90;;;;;;4911270;29;20497;-85
2023/03/09 13:18:37;;;;;;;11.90;10.10;;;10.20;99.90;;;;;;4923483;29;20486;-85
2023/03/09 13:21:44;;;;;;;10.07;8.97;;;10.30;99.90;;;;;;4934363;29;20453;-84
2023/03/09 13:24:48;;;;;;;14.10;11.13;;;10.20;99.90;;;;;;4935574;29;20468;-85
2023/03/09 13:27:28;;;;;;;13.87;10.63;;;10.10;99.90;;;;;;4937503;29;21081;-85
2023/03/09 13:30:14;;;;;;;12.70;10.33;;;10.10;99.90;;;;;;4921489;29;20461;-86
2023/03/09 13:32:58;;;;;;;11.00;9.10;;;10.30;99.90;;;;;;4937361;28;20517;-87
2023/03/09 13:35:48;;;;;;;13.07;10.53;;;10.40;99.90;;;;;;4932116;29;20492;-86
2023/03/09 13:38:28;;;;;;;12.30;10.30;;;10.40;99.90;;;;;;4940428;29;20457;-84